createdAt,value
2022-10-31T00:01:10.291Z,7.20
2022-10-31T00:03:36.915Z,6.55
2022-10-31T00:06:03.662Z,7.60
2022-10-31T00:08:30.377Z,8.07
2022-10-31T00:10:57.111Z,7.15
2022-10-31T00:13:23.833Z,7.13
2022-10-31T00:15:50.628Z,8.75
2022-10-31T00:18:17.417Z,7.43
2022-10-31T00:20:44.175Z,8.23
2022-10-31T00:23:12.208Z,9.05
2022-10-31T00:25:40.569Z,7.85
2022-10-31T00:28:11.496Z,8.32
2022-10-31T00:30:38.337Z,8.10
2022-10-31T00:33:06.263Z,8.57
2022-10-31T00:35:33.428Z,8.75
2022-10-31T00:38:00.367Z,8.25
2022-10-31T00:40:27.270Z,8.85
2022-10-31T00:42:54.145Z,8.82
2022-10-31T00:45:20.900Z,8.10
2022-10-31T00:47:47.537Z,8.43
2022-10-31T00:50:14.283Z,8.80
2022-10-31T00:52:41.012Z,8.90
2022-10-31T00:55:07.959Z,9.07
2022-10-31T00:57:34.603Z,8.95
2022-10-31T01:00:01.361Z,8.75
2022-10-31T01:02:28.272Z,8.50
2022-10-31T01:04:55.028Z,8.32
2022-10-31T01:07:22.849Z,8.07
2022-10-31T01:09:49.497Z,9.10
2022-10-31T01:12:16.145Z,8.88
2022-10-31T01:14:46.242Z,8.90
2022-10-31T01:17:13.892Z,8.65
2022-10-31T01:19:40.584Z,9.00
2022-10-31T01:22:07.304Z,9.68
2022-10-31T01:24:33.981Z,9.05
2022-10-31T01:27:00.632Z,9.02
2022-10-31T01:29:27.323Z,8.95
2022-10-31T01:31:53.977Z,8.82
2022-10-31T01:34:20.721Z,8.23
2022-10-31T01:36:52.012Z,9.18
2022-10-31T01:39:20.394Z,10.98
2022-10-31T01:41:52.847Z,8.77
2022-10-31T01:44:19.452Z,8.32
2022-10-31T01:46:51.143Z,8.73
2022-10-31T01:49:38.228Z,9.13
2022-10-31T01:52:13.538Z,8.13
2022-10-31T01:55:05.385Z,8.52
2022-10-31T01:57:34.180Z,8.23
2022-10-31T02:00:04.039Z,9.55
2022-10-31T02:02:31.583Z,8.32
2022-10-31T02:05:00.687Z,8.55
2022-10-31T02:07:37.650Z,8.25
2022-10-31T02:10:05.852Z,8.27
2022-10-31T02:12:33.621Z,8.27
2022-10-31T02:15:01.511Z,7.82
2022-10-31T02:17:30.762Z,8.82
2022-10-31T02:20:18.324Z,8.20
2022-10-31T02:23:15.630Z,8.68
2022-10-31T02:25:52.992Z,9.57
2022-10-31T02:28:46.337Z,8.23
2022-10-31T02:31:36.123Z,9.20
2022-10-31T02:34:11.862Z,8.18
2022-10-31T02:36:48.669Z,8.65
2022-10-31T02:39:45.653Z,8.20
2022-10-31T02:42:18.021Z,8.02
2022-10-31T02:44:57.344Z,8.70
2022-10-31T02:47:28.986Z,8.10
2022-10-31T02:50:03.647Z,8.65
2022-10-31T02:52:32.610Z,8.07
2022-10-31T02:54:59.928Z,8.88
2022-10-31T02:57:32.454Z,9.05
2022-10-31T03:00:07.358Z,8.52
2022-10-31T03:02:52.222Z,7.80
2022-10-31T03:05:42.206Z,8.55
2022-10-31T03:08:49.109Z,8.60
2022-10-31T03:11:19.792Z,7.97
2022-10-31T03:13:55.546Z,8.60
2022-10-31T03:16:52.595Z,8.05
2022-10-31T03:19:34.211Z,8.25
2022-10-31T03:22:16.498Z,8.55
2022-10-31T03:24:44.262Z,7.90
2022-10-31T03:27:14.396Z,9.15
2022-10-31T03:29:44.746Z,8.90
2022-10-31T03:32:16.328Z,8.93
2022-10-31T03:34:46.951Z,9.50
2022-10-31T03:37:17.106Z,9.52
2022-10-31T03:39:47.534Z,8.27
2022-10-31T03:42:17.351Z,8.73
2022-10-31T03:45:09.989Z,9.23
2022-10-31T03:47:38.887Z,9.30
2022-10-31T03:50:08.528Z,8.73
2022-10-31T03:52:48.932Z,9.47
2022-10-31T03:55:22.169Z,9.60
2022-10-31T03:58:29.524Z,10.35
2022-10-31T04:00:58.496Z,9.68
2022-10-31T04:03:31.828Z,9.70
2022-10-31T04:06:03.036Z,9.98
2022-10-31T04:08:32.321Z,9.43
2022-10-31T04:11:01.045Z,9.68
2022-10-31T04:13:30.865Z,9.63
2022-10-31T04:15:58.204Z,8.95
2022-10-31T04:18:25.466Z,9.70
2022-10-31T04:21:07.741Z,10.27
2022-10-31T04:23:35.951Z,9.68
2022-10-31T04:26:04.270Z,10.18
2022-10-31T04:28:31.015Z,9.93
2022-10-31T04:30:57.789Z,10.13
2022-10-31T04:33:24.448Z,9.88
2022-10-31T04:35:51.154Z,9.05
2022-10-31T04:38:17.797Z,9.35
2022-10-31T04:40:45.504Z,9.55
2022-10-31T04:43:12.306Z,9.63
2022-10-31T04:45:39.000Z,10.63
2022-10-31T04:48:05.817Z,9.68
2022-10-31T04:50:32.510Z,9.70
2022-10-31T04:52:59.243Z,10.02
2022-10-31T04:55:25.985Z,10.55
2022-10-31T04:57:52.628Z,10.20
2022-10-31T05:00:21.715Z,10.07
2022-10-31T05:02:53.694Z,9.55
2022-10-31T05:05:22.984Z,9.63
2022-10-31T05:07:50.590Z,9.70
2022-10-31T05:10:20.753Z,9.57
2022-10-31T05:13:02.783Z,9.35
2022-10-31T05:15:30.609Z,10.35
2022-10-31T05:17:57.931Z,10.88
2022-10-31T05:20:27.515Z,9.80
2022-10-31T05:22:56.331Z,9.98
2022-10-31T05:25:25.010Z,10.93
2022-10-31T05:27:53.265Z,9.90
2022-10-31T05:30:22.920Z,9.40
2022-10-31T05:32:52.117Z,9.07
2022-10-31T05:35:24.723Z,11.20
2022-10-31T05:37:51.683Z,10.60
2022-10-31T05:40:20.154Z,9.88
2022-10-31T05:42:47.722Z,10.30
2022-10-31T05:45:19.127Z,10.40
2022-10-31T05:47:54.974Z,10.32
2022-10-31T05:50:22.239Z,10.80
2022-10-31T05:52:55.083Z,10.32
2022-10-31T05:55:21.789Z,9.85
2022-10-31T05:57:48.457Z,9.52
2022-10-31T06:00:15.370Z,10.07
2022-10-31T06:02:42.187Z,10.38
2022-10-31T06:05:09.299Z,9.85
2022-10-31T06:07:36.768Z,9.82
2022-10-31T06:10:06.317Z,10.95
2022-10-31T06:12:33.555Z,11.10
2022-10-31T06:15:00.285Z,10.52
2022-10-31T06:17:26.960Z,9.43
2022-10-31T06:19:53.699Z,8.18
2022-10-31T06:22:20.460Z,7.68
2022-10-31T06:24:47.108Z,8.05
2022-10-31T06:27:13.781Z,7.93
2022-10-31T06:29:40.707Z,7.43
2022-10-31T06:32:10.627Z,7.38
2022-10-31T06:34:37.270Z,7.55
2022-10-31T06:37:03.945Z,7.13
2022-10-31T06:39:30.612Z,7.63
2022-10-31T06:41:57.449Z,7.50
2022-10-31T06:44:24.250Z,7.63
2022-10-31T06:46:51.137Z,8.05
2022-10-31T06:49:18.897Z,7.38
2022-10-31T06:51:51.930Z,8.30
2022-10-31T06:54:18.845Z,8.32
2022-10-31T06:56:48.634Z,7.85
2022-10-31T06:59:15.826Z,8.10
2022-10-31T07:01:42.679Z,8.32
2022-10-31T07:04:11.382Z,8.32
2022-10-31T07:06:38.506Z,8.00
2022-10-31T07:09:05.454Z,8.23
2022-10-31T07:11:32.169Z,7.10
2022-10-31T07:13:59.022Z,8.18
2022-10-31T07:16:25.749Z,7.97
2022-10-31T07:18:52.618Z,8.20
2022-10-31T07:21:19.274Z,9.18
2022-10-31T07:23:49.015Z,9.93
2022-10-31T07:26:15.790Z,9.88
2022-10-31T07:28:43.754Z,10.00
2022-10-31T07:31:10.490Z,10.98
2022-10-31T07:33:37.269Z,11.65
2022-10-31T07:36:04.023Z,12.23
2022-10-31T07:38:30.731Z,12.15
2022-10-31T07:40:57.465Z,12.73
2022-10-31T07:43:24.136Z,11.88
2022-10-31T07:45:54.464Z,13.20
2022-10-31T07:48:21.229Z,14.50
2022-10-31T07:50:48.172Z,12.23
2022-10-31T07:53:15.939Z,11.80
2022-10-31T07:55:43.089Z,14.10
2022-10-31T07:58:15.501Z,12.88
2022-10-31T08:00:44.458Z,13.25
2022-10-31T08:03:13.410Z,13.00
2022-10-31T08:05:41.908Z,13.35
2022-10-31T08:08:09.732Z,13.95
2022-10-31T08:10:37.010Z,14.63
2022-10-31T08:13:07.066Z,14.95
2022-10-31T08:15:35.282Z,15.05
2022-10-31T08:18:03.367Z,15.48
2022-10-31T08:20:30.228Z,17.73
2022-10-31T08:22:59.484Z,14.93
2022-10-31T08:25:28.287Z,15.90
2022-10-31T08:27:56.719Z,16.77
2022-10-31T08:30:26.795Z,16.13
2022-10-31T08:33:19.872Z,17.65
2022-10-31T08:35:46.551Z,20.08
2022-10-31T08:38:13.965Z,20.50
2022-10-31T08:40:40.898Z,19.30
2022-10-31T08:43:14.380Z,20.38
2022-10-31T08:45:41.460Z,19.98
2022-10-31T08:48:14.715Z,21.83
2022-10-31T08:50:42.049Z,19.27
2022-10-31T08:53:13.006Z,21.75
2022-10-31T08:55:41.480Z,20.95
2022-10-31T08:58:11.947Z,22.27
2022-10-31T09:03:09.846Z,24.85
2022-10-31T09:05:36.854Z,26.17
2022-10-31T09:08:05.740Z,25.75
2022-10-31T09:10:34.157Z,24.95
2022-10-31T09:13:07.570Z,28.17
2022-10-31T09:15:40.062Z,26.80
2022-10-31T09:18:07.938Z,27.83
2022-10-31T09:20:36.348Z,26.33
2022-10-31T09:23:14.614Z,26.38
2022-10-31T09:25:45.074Z,26.02
2022-10-31T09:28:17.945Z,27.20
2022-10-31T09:30:48.032Z,25.55
2022-10-31T09:33:15.261Z,25.75
2022-10-31T09:35:42.577Z,25.67
2022-10-31T09:38:15.612Z,24.15
2022-10-31T09:40:47.282Z,23.90
2022-10-31T09:43:39.091Z,23.45
2022-10-31T09:46:40.558Z,22.65
2022-10-31T09:49:10.140Z,23.85
2022-10-31T09:51:50.533Z,22.23
2022-10-31T09:54:39.978Z,21.52
2022-10-31T09:57:10.680Z,19.23
2022-10-31T09:59:40.700Z,19.73
2022-10-31T10:02:30.533Z,18.60
2022-10-31T10:05:10.687Z,18.15
2022-10-31T10:07:59.665Z,18.70
2022-10-31T10:10:41.735Z,17.95
2022-10-31T10:13:21.702Z,19.60
2022-10-31T10:16:07.232Z,18.25
2022-10-31T10:19:01.503Z,19.33
2022-10-31T10:21:30.294Z,18.33
2022-10-31T10:23:56.897Z,17.85
2022-10-31T10:29:08.938Z,17.33
2022-10-31T10:31:41.203Z,18.00
2022-10-31T10:34:35.646Z,18.48
2022-10-31T10:37:27.681Z,17.30
2022-10-31T10:40:01.087Z,16.63
2022-10-31T10:42:47.363Z,16.10
2022-10-31T10:45:38.646Z,15.90
2022-10-31T10:48:26.560Z,17.05
2022-10-31T10:50:53.709Z,17.55
2022-10-31T10:54:10.398Z,17.42
2022-10-31T10:56:55.095Z,18.55
2022-10-31T10:59:40.100Z,17.88
2022-10-31T11:02:27.820Z,18.23
2022-10-31T11:05:01.168Z,17.33
2022-10-31T11:07:39.696Z,17.17
2022-10-31T11:10:15.008Z,17.30
2022-10-31T11:12:45.554Z,17.10
2022-10-31T11:15:24.825Z,17.50
2022-10-31T11:17:55.291Z,15.95
2022-10-31T11:23:26.825Z,17.00
2022-10-31T11:26:17.621Z,16.38
2022-10-31T11:28:44.986Z,16.23
2022-10-31T11:31:16.339Z,14.45
2022-10-31T11:33:49.268Z,14.40
2022-10-31T11:36:22.399Z,13.68
2022-10-31T11:38:50.281Z,14.63
2022-10-31T11:41:20.022Z,14.77
2022-10-31T11:43:54.344Z,13.68
2022-10-31T11:46:30.139Z,15.45
2022-10-31T11:48:57.590Z,16.27
2022-10-31T11:51:33.813Z,16.35
2022-10-31T11:54:04.177Z,16.10
2022-10-31T11:56:42.025Z,14.38
2022-10-31T11:59:30.423Z,17.20
2022-10-31T12:01:59.900Z,17.13
2022-10-31T12:04:42.720Z,18.30
2022-10-31T12:07:09.638Z,18.65
2022-10-31T12:09:38.853Z,20.27
2022-10-31T12:12:25.310Z,19.17
2022-10-31T12:15:00.721Z,21.15
2022-10-31T12:17:42.718Z,20.42
2022-10-31T12:20:24.128Z,20.48
2022-10-31T12:23:05.857Z,20.35
2022-10-31T12:25:48.298Z,20.35
2022-10-31T12:28:56.003Z,20.85
2022-10-31T12:31:35.019Z,21.25
2022-10-31T12:34:10.309Z,19.95
2022-10-31T12:36:53.871Z,21.42
2022-10-31T12:40:04.911Z,21.52
2022-10-31T12:42:57.928Z,19.95
2022-10-31T12:45:52.659Z,21.17
2022-10-31T12:48:57.108Z,21.35
2022-10-31T12:52:21.718Z,21.48
2022-10-31T12:55:04.470Z,21.10
2022-10-31T12:57:51.613Z,22.58
2022-10-31T13:00:28.068Z,21.95
2022-10-31T13:03:35.670Z,21.10
2022-10-31T13:06:10.708Z,21.15
2022-10-31T13:08:44.829Z,21.05
2022-10-31T13:11:15.692Z,21.25
2022-10-31T13:13:50.398Z,20.08
2022-10-31T13:16:29.382Z,21.30
2022-10-31T13:19:12.934Z,21.52
2022-10-31T13:22:01.048Z,21.30
2022-10-31T13:24:48.915Z,21.02
2022-10-31T13:28:00.093Z,20.80
2022-10-31T13:30:45.105Z,21.52
2022-10-31T13:33:19.427Z,22.40
2022-10-31T13:36:15.324Z,21.67
2022-10-31T13:38:41.929Z,20.92
2022-10-31T13:41:36.265Z,21.48
2022-10-31T13:44:13.315Z,21.02
2022-10-31T13:49:31.291Z,20.05
2022-10-31T13:52:10.399Z,20.40
2022-10-31T13:54:42.994Z,20.10
2022-10-31T13:57:20.683Z,19.77
2022-10-31T14:00:05.491Z,20.55
2022-10-31T14:02:35.981Z,20.15
2022-10-31T14:07:32.493Z,20.48
2022-10-31T14:10:29.021Z,20.17
2022-10-31T14:13:32.793Z,19.95
2022-10-31T14:16:18.385Z,20.10
2022-10-31T14:18:51.596Z,19.77
2022-10-31T14:21:24.879Z,20.48
2022-10-31T14:23:57.515Z,21.98
2022-10-31T14:26:27.159Z,20.73
2022-10-31T14:28:57.841Z,21.67
2022-10-31T14:31:33.774Z,22.10
2022-10-31T14:34:22.641Z,20.92
2022-10-31T14:37:10.649Z,22.45
2022-10-31T14:39:55.927Z,21.55
2022-10-31T14:42:41.341Z,22.35
2022-10-31T14:45:21.726Z,22.88
2022-10-31T14:48:10.194Z,23.52
2022-10-31T14:50:49.351Z,22.63
2022-10-31T14:53:35.587Z,23.15
2022-10-31T14:56:06.675Z,22.90
2022-10-31T14:58:46.735Z,23.65
2022-10-31T15:01:32.199Z,23.50
2022-10-31T15:04:25.265Z,23.58
2022-10-31T15:07:25.600Z,23.08
2022-10-31T15:10:19.537Z,23.33
2022-10-31T15:12:46.352Z,24.35
2022-10-31T15:15:19.654Z,24.10
2022-10-31T15:17:51.310Z,25.25
2022-10-31T15:20:25.456Z,26.45
2022-10-31T15:22:52.240Z,26.08
2022-10-31T15:25:24.747Z,25.83
2022-10-31T15:27:53.400Z,23.92
2022-10-31T15:30:25.815Z,24.15
2022-10-31T15:32:59.606Z,24.77
2022-10-31T15:35:28.779Z,22.92
2022-10-31T15:37:57.362Z,23.77
2022-10-31T15:40:27.376Z,22.90
2022-10-31T15:43:03.802Z,22.05
2022-10-31T15:45:31.432Z,22.98
2022-10-31T15:48:05.639Z,22.35
2022-10-31T15:50:41.254Z,21.50
2022-10-31T15:53:20.555Z,22.50
2022-10-31T15:56:01.854Z,22.20
2022-10-31T15:58:29.638Z,22.95
2022-10-31T16:01:02.001Z,22.77
2022-10-31T16:03:31.521Z,20.92
2022-10-31T16:06:00.598Z,21.03
2022-10-31T16:08:32.579Z,21.58
2022-10-31T16:11:06.681Z,20.42
2022-10-31T16:13:36.004Z,20.95
2022-10-31T16:18:54.369Z,21.40
2022-10-31T16:21:27.060Z,21.73
2022-10-31T16:24:02.719Z,20.70
2022-10-31T16:26:32.201Z,20.02
2022-10-31T16:29:04.712Z,20.42
2022-10-31T16:31:38.960Z,20.40
2022-10-31T16:34:32.146Z,20.25
2022-10-31T16:37:07.743Z,19.85
2022-10-31T16:39:34.373Z,21.13
2022-10-31T16:42:01.137Z,20.65
2022-10-31T16:44:28.174Z,22.38
2022-10-31T16:47:15.900Z,19.88
2022-10-31T16:49:44.588Z,21.00
2022-10-31T16:52:11.531Z,21.00
2022-10-31T16:54:38.366Z,21.67
2022-10-31T16:57:06.657Z,20.65
2022-10-31T16:59:34.812Z,19.95
2022-10-31T17:02:03.270Z,21.65
2022-10-31T17:04:30.253Z,22.88
2022-10-31T17:06:57.005Z,22.00
2022-10-31T17:09:23.743Z,21.98
2022-10-31T17:11:53.551Z,22.85
2022-10-31T17:14:20.534Z,22.73
2022-10-31T17:16:47.237Z,22.63
2022-10-31T17:19:14.685Z,24.13
2022-10-31T17:21:41.629Z,20.90
2022-10-31T17:24:15.654Z,22.92
2022-10-31T17:26:42.747Z,21.85
2022-10-31T17:29:09.691Z,22.40
2022-10-31T17:31:36.793Z,23.90
2022-10-31T17:34:05.271Z,23.00
2022-10-31T17:36:33.514Z,22.63
2022-10-31T17:39:00.885Z,21.35
2022-10-31T17:41:27.525Z,21.83
2022-10-31T17:43:58.652Z,23.15
2022-10-31T17:46:25.683Z,23.45
2022-10-31T17:48:52.447Z,23.17
2022-10-31T17:51:19.134Z,23.08
2022-10-31T17:53:45.885Z,23.38
2022-10-31T17:56:12.651Z,21.83
2022-10-31T17:58:39.375Z,21.95
2022-10-31T18:01:15.814Z,22.92
2022-10-31T18:03:43.034Z,21.50
2022-10-31T18:06:11.297Z,22.05
2022-10-31T18:08:39.929Z,22.00
2022-10-31T18:11:12.850Z,21.95
2022-10-31T18:13:42.304Z,21.92
2022-10-31T18:16:15.117Z,22.27
2022-10-31T18:18:42.787Z,22.30
2022-10-31T18:21:09.645Z,20.02
2022-10-31T18:23:36.388Z,41.28
2022-10-31T18:26:03.694Z,23.05
2022-10-31T18:28:30.368Z,31.13
2022-10-31T18:31:00.259Z,21.80
2022-10-31T18:33:27.315Z,19.60
2022-10-31T18:35:55.181Z,22.30
2022-10-31T18:38:22.121Z,21.75
2022-10-31T18:40:51.159Z,20.08
2022-10-31T18:43:18.897Z,20.20
2022-10-31T18:45:48.687Z,22.23
2022-10-31T18:48:17.460Z,20.70
2022-10-31T18:50:44.514Z,19.17
2022-10-31T18:53:11.291Z,20.08
2022-10-31T18:55:45.742Z,20.27
2022-10-31T18:58:17.013Z,19.10
2022-10-31T19:00:43.740Z,19.05
2022-10-31T19:03:10.543Z,19.30
2022-10-31T19:05:37.633Z,18.52
2022-10-31T19:08:05.214Z,17.83
2022-10-31T19:10:35.309Z,17.73
2022-10-31T19:13:02.185Z,17.77
2022-10-31T19:15:29.100Z,16.52
2022-10-31T19:17:56.148Z,16.83
2022-10-31T19:20:23.904Z,16.60
2022-10-31T19:22:50.742Z,16.00
2022-10-31T19:25:17.525Z,16.27
2022-10-31T19:27:44.675Z,15.65
2022-10-31T19:30:12.435Z,14.68
2022-10-31T19:32:39.277Z,15.05
2022-10-31T19:35:09.195Z,14.43
2022-10-31T19:37:36.691Z,14.23
2022-10-31T19:40:05.355Z,14.00
2022-10-31T19:42:33.112Z,14.15
2022-10-31T19:45:00.385Z,12.75
2022-10-31T19:47:27.286Z,12.90
2022-10-31T19:49:53.927Z,11.73
2022-10-31T19:52:20.622Z,11.35
2022-10-31T19:58:00.294Z,10.05
2022-10-31T20:06:40.133Z,9.82
2022-10-31T20:09:15.332Z,9.10
2022-10-31T20:18:05.321Z,8.27
2022-10-31T20:18:06.320Z,8.60
2022-10-31T20:20:53.692Z,8.55
2022-10-31T20:23:21.471Z,7.43
2022-10-31T20:25:49.817Z,8.05
2022-10-31T20:28:17.184Z,7.50
2022-10-31T20:30:44.617Z,7.63
2022-10-31T20:33:11.631Z,7.28
2022-10-31T20:35:41.799Z,7.15
2022-10-31T20:38:09.225Z,6.53
2022-10-31T20:40:36.579Z,6.20
2022-10-31T20:43:04.297Z,6.70
2022-10-31T20:45:31.767Z,7.07
2022-10-31T20:47:59.250Z,6.68
2022-10-31T20:50:26.678Z,6.38
2022-10-31T20:52:53.872Z,6.90
2022-10-31T20:55:20.813Z,6.78
2022-10-31T20:57:47.513Z,5.78
2022-10-31T21:00:14.460Z,6.60
2022-10-31T21:02:42.843Z,6.50
2022-10-31T21:05:13.200Z,6.15
2022-10-31T21:07:40.975Z,6.30
2022-10-31T21:10:14.875Z,6.85
2022-10-31T21:12:43.783Z,5.95
2022-10-31T21:15:12.035Z,6.60
2022-10-31T21:17:38.795Z,5.80
2022-10-31T21:20:07.250Z,5.80
2022-10-31T21:22:34.690Z,6.15
2022-10-31T21:25:01.455Z,5.35
2022-10-31T21:27:28.305Z,6.15
2022-10-31T21:29:56.055Z,6.15
2022-10-31T21:32:23.070Z,5.82
2022-10-31T21:34:50.367Z,5.47
2022-10-31T21:37:17.152Z,5.72
2022-10-31T21:39:48.265Z,5.90
2022-10-31T21:42:20.606Z,5.72
2022-10-31T21:44:51.229Z,5.25
2022-10-31T21:47:18.348Z,6.50
2022-10-31T21:49:45.142Z,6.28
2022-10-31T21:52:12.248Z,5.80
2022-10-31T21:54:38.999Z,5.28
2022-10-31T21:57:05.899Z,5.60
2022-10-31T21:59:32.586Z,6.25
2022-10-31T22:02:00.774Z,5.60
2022-10-31T22:04:28.408Z,5.57
2022-10-31T22:06:55.833Z,5.60
2022-10-31T22:09:23.730Z,4.95
2022-10-31T22:11:50.843Z,5.60
2022-10-31T22:14:17.582Z,5.35
2022-10-31T22:16:44.457Z,5.32
2022-10-31T22:19:13.510Z,4.93
2022-10-31T22:21:46.337Z,4.72
2022-10-31T22:24:13.888Z,4.90
2022-10-31T22:26:40.847Z,5.18
2022-10-31T22:29:14.045Z,4.97
2022-10-31T22:31:42.541Z,5.13
2022-10-31T22:34:09.682Z,5.25
2022-10-31T22:36:37.821Z,5.07
2022-10-31T22:39:05.070Z,4.78
2022-10-31T22:41:34.510Z,4.90
2022-10-31T22:44:03.015Z,5.05
2022-10-31T22:46:32.268Z,5.93
2022-10-31T22:49:01.458Z,5.40
2022-10-31T22:51:30.727Z,4.53
2022-10-31T22:53:57.510Z,5.47
2022-10-31T22:56:30.168Z,4.88
2022-10-31T22:58:57.878Z,4.95
2022-10-31T23:01:27.378Z,5.35
2022-10-31T23:03:54.253Z,4.50
2022-10-31T23:06:23.630Z,5.10
2022-10-31T23:08:51.724Z,4.82
2022-10-31T23:11:22.508Z,5.70
2022-10-31T23:14:10.169Z,5.68
2022-10-31T23:16:43.087Z,5.00
2022-10-31T23:19:11.741Z,6.57
2022-10-31T23:22:02.423Z,5.45
2022-10-31T23:24:37.579Z,6.18
2022-10-31T23:27:22.578Z,6.07
2022-10-31T23:29:59.714Z,5.85
2022-10-31T23:32:35.801Z,5.78
2022-10-31T23:35:06.807Z,5.78
2022-10-31T23:37:35.132Z,5.63
2022-10-31T23:40:02.087Z,6.28
2022-10-31T23:42:29.468Z,5.75
2022-10-31T23:44:56.779Z,5.70
2022-10-31T23:47:23.784Z,6.05
2022-10-31T23:49:50.864Z,6.35
2022-10-31T23:52:18.327Z,6.25
2022-10-31T23:54:45.052Z,6.53
2022-10-31T23:57:13.438Z,6.55
2022-10-31T23:59:40.605Z,5.95
